Time;durP1;ratioP1;P1;durP2;ratioP2;P2;SDS_P1;SDS_P2;PMS_P1;PMS_P2;Temp;Humidity;BMP_temperature;BMP_pressure;BME280_temperature;BME280_humidity;BME280_pressure;Samples;Min_cycle;Max_cycle;Signal;HPM_P1;HPM_P2
2023/05/08 00:00:21;;;;;;;11.45;10.23;;;10.30;89.10;;;;;;5054583;28;20059;-76
2023/05/08 00:02:47;;;;;;;12.07;9.27;;;10.30;89.50;;;;;;5055902;28;20504;-69
2023/05/08 00:05:13;;;;;;;13.95;10.55;;;10.30;88.60;;;;;;5055835;28;20473;-69
2023/05/08 00:07:39;;;;;;;10.45;8.85;;;10.30;89.00;;;;;;5055045;28;20487;-70
2023/05/08 00:10:06;;;;;;;9.95;8.68;;;10.20;88.90;;;;;;5055720;28;20363;-69
2023/05/08 00:12:32;;;;;;;11.93;9.25;;;10.20;89.20;;;;;;5055312;28;20057;-69
2023/05/08 00:14:58;;;;;;;10.95;9.75;;;10.20;88.40;;;;;;5055463;28;20437;-69
2023/05/08 00:17:24;;;;;;;11.63;9.30;;;10.20;88.30;;;;;;5053860;28;20029;-70
2023/05/08 00:19:49;;;;;;;10.95;8.13;;;10.20;88.40;;;;;;5055577;28;20030;-68
2023/05/08 00:22:15;;;;;;;10.18;8.30;;;10.30;88.50;;;;;;5055718;28;20427;-70
2023/05/08 00:24:41;;;;;;;10.85;8.00;;;10.20;87.50;;;;;;5054742;28;20025;-69
2023/05/08 00:27:09;;;;;;;9.65;7.55;;;10.20;87.60;;;;;;5055077;28;20056;-69
2023/05/08 00:29:35;;;;;;;10.05;7.72;;;10.10;87.00;;;;;;5053666;28;20514;-69
2023/05/08 00:32:01;;;;;;;9.68;8.02;;;10.10;86.90;;;;;;5054182;28;20115;-69
2023/05/08 00:34:26;;;;;;;10.55;8.18;;;10.10;87.60;;;;;;5054967;28;20033;-70
2023/05/08 00:36:52;;;;;;;10.70;8.05;;;10.00;87.60;;;;;;5055228;28;20381;-69
2023/05/08 00:39:18;;;;;;;8.48;7.57;;;10.00;87.70;;;;;;5055178;28;20537;-69
2023/05/08 00:41:43;;;;;;;12.27;8.93;;;10.00;87.80;;;;;;5055039;28;20070;-70
2023/05/08 00:44:09;;;;;;;10.23;7.22;;;9.90;88.80;;;;;;5054823;28;20386;-69
2023/05/08 00:46:35;;;;;;;7.90;7.13;;;9.90;88.10;;;;;;5054781;28;20099;-69
2023/05/08 00:49:03;;;;;;;12.68;8.07;;;9.90;88.80;;;;;;5055104;28;20029;-69
2023/05/08 00:51:30;;;;;;;8.48;7.07;;;9.90;88.70;;;;;;5054532;28;20124;-69
2023/05/08 00:53:56;;;;;;;10.30;8.30;;;9.90;88.90;;;;;;5055002;28;20029;-69
2023/05/08 00:56:23;;;;;;;9.75;7.93;;;9.90;88.80;;;;;;5054942;28;20036;-69
2023/05/08 00:58:49;;;;;;;12.32;8.18;;;9.90;88.80;;;;;;5054446;28;20486;-69
2023/05/08 01:01:15;;;;;;;10.95;7.93;;;10.00;88.50;;;;;;5054890;28;20032;-69
2023/05/08 01:03:42;;;;;;;9.85;8.45;;;10.00;89.10;;;;;;5054345;28;20363;-69
2023/05/08 01:06:08;;;;;;;10.65;7.78;;;9.90;88.70;;;;;;5054652;28;20080;-68
2023/05/08 01:08:34;;;;;;;10.93;8.25;;;9.90;89.00;;;;;;5054180;28;20535;-69
2023/05/08 01:11:26;;;;;;;11.30;9.18;;;9.90;89.40;;;;;;5054306;28;20047;-69
2023/05/08 01:14:15;;;;;;;8.95;7.45;;;9.90;89.00;;;;;;5054399;28;20032;-70
2023/05/08 01:17:19;;;;;;;10.48;8.05;;;9.90;88.60;;;;;;5054266;28;20029;-69
2023/05/08 01:20:09;;;;;;;9.88;8.52;;;9.90;88.60;;;;;;5054097;28;20029;-69
2023/05/08 01:22:44;;;;;;;10.43;8.15;;;10.00;88.70;;;;;;5053992;28;20060;-69
2023/05/08 01:25:44;;;;;;;9.85;7.55;;;10.10;88.80;;;;;;5054309;28;20025;-69
2023/05/08 01:28:43;;;;;;;10.23;8.32;;;10.10;88.30;;;;;;5054170;28;20119;-69
2023/05/08 01:31:42;;;;;;;11.15;8.65;;;10.10;88.20;;;;;;5053350;28;20032;-69
2023/05/08 01:34:14;;;;;;;11.93;8.70;;;10.10;87.90;;;;;;5054258;28;20029;-69
2023/05/08 01:37:05;;;;;;;10.45;8.98;;;10.00;88.40;;;;;;5052456;28;20029;-70
2023/05/08 01:39:40;;;;;;;;;;;10.00;88.80;;;;;;5054136;28;20354;-69
2023/05/08 01:42:11;;;;;;;12.10;9.52;;;10.00;89.20;;;;;;5053640;28;19909;-68
2023/05/08 01:44:46;;;;;;;11.27;8.93;;;10.00;88.30;;;;;;5053294;28;20049;-69
2023/05/08 01:47:13;;;;;;;11.02;9.10;;;9.80;89.30;;;;;;5053534;28;20043;-68
2023/05/08 01:49:49;;;;;;;12.85;9.63;;;9.80;89.60;;;;;;5053434;28;20025;-69
2023/05/08 01:52:21;;;;;;;11.63;9.05;;;9.80;90.00;;;;;;5054029;28;20033;-68
2023/05/08 01:55:03;;;;;;;11.85;9.18;;;9.80;90.00;;;;;;5053497;28;20021;-69
2023/05/08 01:57:30;;;;;;;13.18;8.98;;;9.80;90.00;;;;;;5053737;28;20029;-68
2023/05/08 01:59:59;;;;;;;10.75;9.65;;;9.80;90.00;;;;;;5053700;28;20031;-68
2023/05/08 02:02:28;;;;;;;10.50;9.40;;;9.70;89.20;;;;;;5053640;28;20025;-68
2023/05/08 02:04:55;;;;;;;12.50;9.68;;;9.70;90.00;;;;;;5053228;28;20028;-69
2023/05/08 02:07:25;;;;;;;11.95;9.48;;;9.60;90.00;;;;;;5053311;28;20033;-69
2023/05/08 02:09:52;;;;;;;12.32;10.05;;;9.60;90.70;;;;;;5053086;28;20397;-68
2023/05/08 02:12:20;;;;;;;14.75;10.60;;;9.60;90.80;;;;;;5053437;28;20021;-70
2023/05/08 02:14:48;;;;;;;11.88;9.48;;;9.60;90.80;;;;;;5051768;28;20458;-70
2023/05/08 02:17:16;;;;;;;13.20;9.52;;;9.70;91.00;;;;;;5053411;28;20116;-69
2023/05/08 02:19:43;;;;;;;13.07;10.32;;;9.70;90.60;;;;;;5052953;28;20024;-70
2023/05/08 02:22:10;;;;;;;11.20;9.80;;;9.70;90.70;;;;;;5053008;28;20386;-69
2023/05/08 02:24:37;;;;;;;14.23;9.82;;;9.70;90.80;;;;;;5052553;28;20021;-70
2023/05/08 02:27:05;;;;;;;11.15;8.68;;;9.60;90.80;;;;;;5052772;28;20068;-69
2023/05/08 02:29:31;;;;;;;11.63;9.18;;;9.60;90.40;;;;;;5053149;28;20033;-69
2023/05/08 02:31:59;;;;;;;11.73;8.68;;;9.70;90.20;;;;;;5052632;28;20043;-69
2023/05/08 02:34:26;;;;;;;11.13;8.85;;;9.60;90.10;;;;;;5053072;28;20017;-69
2023/05/08 02:36:53;;;;;;;11.60;9.20;;;9.60;90.20;;;;;;5052710;28;20465;-69
2023/05/08 02:39:21;;;;;;;12.23;9.40;;;9.60;90.30;;;;;;5051878;28;20021;-68
2023/05/08 02:41:47;;;;;;;13.05;8.68;;;9.60;90.30;;;;;;5052171;28;20225;-69
2023/05/08 02:44:13;;;;;;;10.10;8.68;;;9.60;90.30;;;;;;5052615;28;20428;-69
2023/05/08 02:46:46;;;;;;;11.77;9.02;;;9.50;90.10;;;;;;5051868;28;20489;-70
2023/05/08 02:49:42;;;;;;;11.23;8.40;;;9.50;90.20;;;;;;5052773;28;20466;-69
2023/05/08 02:52:15;;;;;;;10.07;8.50;;;9.50;90.40;;;;;;5053080;28;20047;-69
2023/05/08 02:55:02;;;;;;;11.80;8.80;;;9.50;90.30;;;;;;5051542;28;20048;-70
2023/05/08 02:57:58;;;;;;;10.63;8.38;;;9.50;90.40;;;;;;5052821;28;20347;-69
2023/05/08 03:00:31;;;;;;;12.07;9.07;;;9.50;90.40;;;;;;5052876;28;20073;-69
2023/05/08 03:03:22;;;;;;;11.98;9.32;;;9.50;90.40;;;;;;5052081;28;20060;-69
2023/05/08 03:05:56;;;;;;;13.18;8.40;;;9.50;90.40;;;;;;5047355;28;20029;-69
2023/05/08 03:08:31;;;;;;;11.00;8.95;;;9.50;90.10;;;;;;5052406;28;20547;-69
2023/05/08 03:11:01;;;;;;;12.07;8.90;;;9.50;90.40;;;;;;5052254;28;20108;-70
2023/05/08 03:13:29;;;;;;;15.45;8.75;;;9.50;90.30;;;;;;5052642;28;20029;-69
2023/05/08 03:16:00;;;;;;;10.63;8.25;;;9.50;90.40;;;;;;5051911;28;20047;-68
2023/05/08 03:18:35;;;;;;;13.98;8.15;;;9.50;90.20;;;;;;5052904;28;20029;-68
2023/05/08 03:21:02;;;;;;;12.20;8.73;;;9.50;90.40;;;;;;5052077;28;20068;-70
2023/05/08 03:23:30;;;;;;;9.88;8.63;;;9.50;90.20;;;;;;5051219;28;20029;-68
2023/05/08 03:25:58;;;;;;;9.05;7.70;;;9.50;90.20;;;;;;5052126;28;20028;-69
2023/05/08 03:28:24;;;;;;;11.32;8.85;;;9.50;90.20;;;;;;5052446;28;20040;-69
2023/05/08 03:30:50;;;;;;;8.60;7.45;;;9.50;90.50;;;;;;5051952;28;20032;-69
2023/05/08 03:33:17;;;;;;;12.10;8.00;;;9.40;90.20;;;;;;5052580;28;20029;-69
2023/05/08 03:35:44;;;;;;;9.40;7.07;;;9.50;90.20;;;;;;5051752;28;20066;-68
2023/05/08 03:38:10;;;;;;;12.57;8.10;;;9.50;90.00;;;;;;5051877;28;20397;-68
2023/05/08 03:40:41;;;;;;;9.45;7.65;;;9.50;89.90;;;;;;5052068;28;20035;-68
2023/05/08 03:43:07;;;;;;;9.40;7.43;;;9.40;89.20;;;;;;5052682;28;20029;-70
2023/05/08 03:45:37;;;;;;;10.07;7.65;;;9.40;90.00;;;;;;5052247;28;20053;-69
2023/05/08 03:48:04;;;;;;;10.95;7.57;;;9.40;89.70;;;;;;5052376;28;20064;-70
2023/05/08 03:50:30;;;;;;;9.65;7.60;;;9.40;89.90;;;;;;5052155;28;20120;-69
2023/05/08 03:52:58;;;;;;;9.93;7.13;;;9.40;90.00;;;;;;5052137;28;20056;-69
2023/05/08 03:55:24;;;;;;;10.57;7.18;;;9.40;89.80;;;;;;5052232;28;20017;-69
2023/05/08 03:58:16;;;;;;;8.93;7.68;;;9.50;89.60;;;;;;5051778;28;20039;-68
2023/05/08 04:01:04;;;;;;;9.85;7.20;;;9.50;89.40;;;;;;5051621;28;20100;-69
2023/05/08 04:03:58;;;;;;;9.73;6.90;;;9.50;88.50;;;;;;5052148;28;20444;-68
2023/05/08 04:06:33;;;;;;;15.00;7.78;;;9.50;88.70;;;;;;5054562;28;20381;-69
2023/05/08 04:09:25;;;;;;;9.57;7.65;;;9.50;88.80;;;;;;5055455;28;20420;-69
2023/05/08 04:11:59;;;;;;;10.27;7.80;;;9.50;89.40;;;;;;5054819;28;20482;-69
2023/05/08 04:14:29;;;;;;;10.30;7.18;;;9.50;88.70;;;;;;5055808;28;20377;-69
2023/05/08 04:17:02;;;;;;;10.23;8.02;;;9.50;89.40;;;;;;5055067;28;20037;-69
2023/05/08 04:19:32;;;;;;;9.13;7.75;;;9.50;89.00;;;;;;5055583;28;20382;-69
2023/05/08 04:22:05;;;;;;;10.30;7.55;;;9.50;89.60;;;;;;5055156;28;20017;-69
2023/05/08 04:24:35;;;;;;;9.43;7.55;;;9.60;89.60;;;;;;5056063;28;20029;-68
2023/05/08 04:27:02;;;;;;;9.30;8.27;;;9.70;88.70;;;;;;5055123;28;20588;-70
2023/05/08 04:29:28;;;;;;;10.57;7.43;;;9.80;88.90;;;;;;5055706;28;20049;-69
2023/05/08 04:31:55;;;;;;;9.38;7.47;;;9.90;88.10;;;;;;5054989;28;20037;-70
2023/05/08 04:34:21;;;;;;;9.20;7.38;;;10.00;87.50;;;;;;5055304;28;20021;-69
2023/05/08 04:36:47;;;;;;;9.73;7.93;;;10.10;86.90;;;;;;5055097;28;20445;-68
2023/05/08 04:39:13;;;;;;;10.35;7.38;;;10.20;85.80;;;;;;5054999;28;20070;-68
2023/05/08 04:41:38;;;;;;;10.15;7.93;;;10.20;86.00;;;;;;5055088;28;20096;-69
2023/05/08 04:44:04;;;;;;;10.48;8.02;;;10.40;85.70;;;;;;5054698;28;20025;-69
2023/05/08 04:46:30;;;;;;;8.82;7.60;;;10.40;85.10;;;;;;5054432;28;20044;-68
2023/05/08 04:48:56;;;;;;;8.50;6.72;;;10.60;84.00;;;;;;5054607;28;20064;-69
2023/05/08 04:51:21;;;;;;;9.43;6.90;;;10.70;83.60;;;;;;5055040;28;20100;-69
2023/05/08 04:53:47;;;;;;;10.05;6.90;;;10.80;83.50;;;;;;5054446;28;20060;-69
2023/05/08 04:56:12;;;;;;;9.40;7.30;;;10.90;82.00;;;;;;5054435;28;20444;-69
2023/05/08 04:58:38;;;;;;;9.52;7.15;;;11.00;81.90;;;;;;5054391;28;20032;-69
2023/05/08 05:01:04;;;;;;;9.88;6.95;;;11.10;81.90;;;;;;5054341;28;20029;-69
2023/05/08 05:03:30;;;;;;;8.55;6.85;;;11.30;80.90;;;;;;5054859;28;20025;-68
2023/05/08 05:06:00;;;;;;;9.05;6.95;;;11.40;81.30;;;;;;5054260;28;20105;-69
2023/05/08 05:08:26;;;;;;;8.02;6.68;;;11.60;80.10;;;;;;5054535;28;20029;-69
2023/05/08 05:10:52;;;;;;;11.75;6.72;;;11.70;79.10;;;;;;5054225;28;20029;-69
2023/05/08 05:13:18;;;;;;;9.65;7.35;;;11.70;79.10;;;;;;5053260;28;20021;-69
2023/05/08 05:15:44;;;;;;;10.50;6.75;;;11.90;78.60;;;;;;5054427;28;20090;-68
2023/05/08 05:18:10;;;;;;;8.30;6.63;;;12.10;77.80;;;;;;5053561;28;20090;-67
2023/05/08 05:20:36;;;;;;;8.10;6.30;;;12.10;76.00;;;;;;5054491;28;20037;-67
2023/05/08 05:23:02;;;;;;;7.25;5.90;;;12.40;75.80;;;;;;5053891;28;20036;-69
2023/05/08 05:25:28;;;;;;;7.70;5.97;;;12.70;75.60;;;;;;5054228;28;20036;-69
2023/05/08 05:27:53;;;;;;;7.40;5.65;;;13.20;73.90;;;;;;5054027;28;20033;-70
2023/05/08 05:30:19;;;;;;;7.38;6.05;;;13.80;71.10;;;;;;5054192;28;20113;-68
2023/05/08 05:32:45;;;;;;;7.88;5.38;;;14.40;69.40;;;;;;5053937;28;20397;-68
2023/05/08 05:35:10;;;;;;;7.65;6.28;;;15.00;66.80;;;;;;5053737;28;20108;-68
2023/05/08 05:37:36;;;;;;;5.97;5.22;;;15.40;63.90;;;;;;5054169;28;20124;-68
2023/05/08 05:40:02;;;;;;;6.35;5.30;;;16.00;63.00;;;;;;5053629;28;20025;-68
2023/05/08 05:42:28;;;;;;;5.80;5.13;;;16.80;60.60;;;;;;5053122;28;20060;-69
2023/05/08 05:44:55;;;;;;;7.18;6.38;;;17.20;58.70;;;;;;5053521;28;20080;-68
2023/05/08 05:47:21;;;;;;;6.13;5.50;;;17.70;56.70;;;;;;5053674;28;20072;-69
2023/05/08 05:49:47;;;;;;;5.55;4.78;;;17.90;55.10;;;;;;5053771;28;20088;-68
2023/05/08 05:52:13;;;;;;;8.70;5.18;;;18.30;55.00;;;;;;5053511;28;20047;-68
2023/05/08 05:54:40;;;;;;;6.40;5.00;;;18.70;53.90;;;;;;5053771;28;20025;-68
2023/05/08 05:57:06;;;;;;;9.07;4.85;;;19.20;51.40;;;;;;5053104;28;20462;-68
2023/05/08 05:59:32;;;;;;;5.65;4.65;;;19.50;50.50;;;;;;5053505;28;20037;-69
2023/05/08 06:01:58;;;;;;;7.85;4.65;;;19.70;49.10;;;;;;5052858;28;20075;-69
2023/05/08 06:04:23;;;;;;;5.05;4.55;;;20.00;49.40;;;;;;5053719;28;20420;-68
2023/05/08 06:06:49;;;;;;;5.43;4.63;;;20.10;48.00;;;;;;5052924;28;20530;-70
2023/05/08 06:09:15;;;;;;;7.55;4.65;;;20.10;48.00;;;;;;5053447;28;20033;-69
2023/05/08 06:11:41;;;;;;;4.47;4.00;;;20.20;47.90;;;;;;5053368;28;20028;-68
2023/05/08 06:14:07;;;;;;;5.38;4.45;;;20.20;47.50;;;;;;5052357;28;20031;-69
2023/05/08 06:16:34;;;;;;;7.47;4.60;;;20.40;47.00;;;;;;5053089;28;20462;-69
2023/05/08 06:19:00;;;;;;;4.63;4.13;;;20.70;46.50;;;;;;5052871;28;20040;-69
2023/05/08 06:21:27;;;;;;;4.85;4.32;;;21.30;46.10;;;;;;5053334;28;20029;-68
2023/05/08 06:23:53;;;;;;;5.45;3.75;;;21.50;44.30;;;;;;5053141;28;20412;-69
2023/05/08 06:26:18;;;;;;;4.32;3.92;;;21.50;43.30;;;;;;5053109;28;20069;-68
2023/05/08 06:28:44;;;;;;;5.00;4.03;;;21.20;44.40;;;;;;5052285;28;20075;-68
2023/05/08 06:31:09;;;;;;;4.53;4.03;;;21.40;43.80;;;;;;5052212;28;20741;-69
2023/05/08 06:33:35;;;;;;;4.55;4.15;;;21.20;43.70;;;;;;5052905;28;20060;-68
2023/05/08 06:36:02;;;;;;;4.60;4.13;;;20.90;44.30;;;;;;5052600;28;20424;-69
2023/05/08 06:38:28;;;;;;;4.90;4.40;;;21.10;43.90;;;;;;5052908;28;20079;-69
2023/05/08 06:40:54;;;;;;;6.90;4.80;;;20.90;44.20;;;;;;5052504;28;20029;-69
2023/05/08 06:43:20;;;;;;;6.60;4.60;;;19.90;44.70;;;;;;5051672;28;20065;-69
2023/05/08 06:45:46;;;;;;;4.88;4.40;;;19.40;46.70;;;;;;5052837;28;20547;-69
2023/05/08 06:48:12;;;;;;;6.90;4.47;;;19.10;47.30;;;;;;5051100;28;20065;-69
2023/05/08 06:50:39;;;;;;;5.72;4.97;;;18.50;48.90;;;;;;5052764;28;20033;-69
2023/05/08 06:53:05;;;;;;;5.47;4.70;;;18.10;49.10;;;;;;5052158;28;20036;-69
2023/05/08 06:55:31;;;;;;;6.32;4.63;;;17.50;50.10;;;;;;5052498;28;20072;-68
2023/05/08 06:57:57;;;;;;;6.90;4.50;;;17.30;52.50;;;;;;5051561;28;20033;-68
2023/05/08 07:00:23;;;;;;;5.13;4.63;;;17.40;51.50;;;;;;5051180;28;20177;-68
2023/05/08 07:02:48;;;;;;;5.43;4.55;;;17.00;52.50;;;;;;5052635;28;20027;-68
2023/05/08 07:05:14;;;;;;;7.47;4.88;;;16.50;53.60;;;;;;5052197;28;20028;-68
2023/05/08 07:07:41;;;;;;;6.22;4.95;;;16.00;55.10;;;;;;5052667;28;20063;-68
2023/05/08 07:10:07;;;;;;;5.57;4.43;;;15.60;55.90;;;;;;5052254;28;20029;-67
2023/05/08 07:12:32;;;;;;;6.15;5.25;;;15.30;56.90;;;;;;5052627;28;20029;-69
2023/05/08 07:14:58;;;;;;;6.40;4.72;;;15.30;58.30;;;;;;5051899;28;20112;-69
2023/05/08 07:17:24;;;;;;;6.32;5.00;;;15.30;58.40;;;;;;5052687;28;20527;-69
2023/05/08 07:19:50;;;;;;;5.78;4.70;;;15.80;57.40;;;;;;5052318;28;20029;-68
2023/05/08 07:22:16;;;;;;;7.13;4.07;;;15.90;58.20;;;;;;5052077;28;20366;-68
2023/05/08 07:24:42;;;;;;;4.95;4.03;;;16.50;57.50;;;;;;5052414;28;20066;-68
2023/05/08 07:27:08;;;;;;;6.93;4.18;;;17.30;56.00;;;;;;5051891;28;20022;-68
2023/05/08 07:29:37;;;;;;;6.80;4.03;;;18.00;53.50;;;;;;5052390;28;20029;-69
2023/05/08 07:32:06;;;;;;;6.60;4.50;;;18.40;51.10;;;;;;5052031;28;20036;-68
2023/05/08 07:34:33;;;;;;;5.70;4.80;;;18.70;51.00;;;;;;5052371;28;20029;-68
2023/05/08 07:36:59;;;;;;;7.03;4.32;;;18.80;51.70;;;;;;5049690;28;20115;-69
2023/05/08 07:39:24;;;;;;;5.88;4.07;;;19.50;49.20;;;;;;5052160;28;20470;-68
2023/05/08 07:41:50;;;;;;;5.68;4.00;;;19.40;48.40;;;;;;5055170;28;20416;-71
2023/05/08 07:44:16;;;;;;;6.38;4.10;;;18.70;48.80;;;;;;5055873;28;20115;-69
2023/05/08 07:46:41;;;;;;;6.22;4.20;;;19.00;49.60;;;;;;5056249;28;20394;-69
2023/05/08 07:49:07;;;;;;;4.63;4.00;;;20.00;49.50;;;;;;5055307;28;20029;-69
2023/05/08 07:51:32;;;;;;;4.60;3.80;;;20.60;46.80;;;;;;5055666;28;20083;-69
2023/05/08 07:53:58;;;;;;;4.65;4.15;;;21.30;46.00;;;;;;5055208;28;20384;-73
2023/05/08 07:56:24;;;;;;;4.82;3.80;;;21.50;44.70;;;;;;5055814;28;20448;-69
2023/05/08 07:58:49;;;;;;;7.38;4.00;;;21.80;44.20;;;;;;5055458;28;20104;-69
2023/05/08 08:01:16;;;;;;;3.80;3.40;;;22.30;44.40;;;;;;5054153;28;20020;-69
2023/05/08 08:03:43;;;;;;;4.57;4.00;;;22.30;42.30;;;;;;5055640;28;20059;-68
2023/05/08 08:06:09;;;;;;;5.18;4.28;;;22.70;42.30;;;;;;5055393;28;20457;-68
2023/05/08 08:08:35;;;;;;;4.65;3.65;;;23.00;41.50;;;;;;5055563;28;20029;-69
2023/05/08 08:11:01;;;;;;;5.20;3.85;;;23.30;41.60;;;;;;5056319;28;20029;-74
2023/05/08 08:13:26;;;;;;;5.03;3.83;;;23.20;40.70;;;;;;5058056;28;20075;-69
2023/05/08 08:15:52;;;;;;;4.28;3.00;;;23.30;40.00;;;;;;5056875;28;20036;-70
2023/05/08 08:18:17;;;;;;;4.20;3.58;;;23.30;40.10;;;;;;5055040;28;20037;-69
2023/05/08 08:20:43;;;;;;;4.43;3.65;;;23.40;40.40;;;;;;5055232;28;20033;-69
2023/05/08 08:23:09;;;;;;;4.50;3.65;;;23.60;40.40;;;;;;5054821;28;20118;-70
2023/05/08 08:25:34;;;;;;;4.47;4.07;;;23.60;39.90;;;;;;5055104;28;20071;-69
2023/05/08 08:28:00;;;;;;;7.32;3.28;;;23.60;39.00;;;;;;5054679;28;20040;-72
2023/05/08 08:30:26;;;;;;;4.75;3.53;;;23.50;39.70;;;;;;5053776;28;20024;-68
2023/05/08 08:32:51;;;;;;;6.60;3.35;;;23.50;39.70;;;;;;5055223;28;20112;-69
2023/05/08 08:35:17;;;;;;;4.50;3.65;;;23.70;40.20;;;;;;5054979;28;20032;-68
2023/05/08 08:37:43;;;;;;;4.28;3.30;;;23.70;39.20;;;;;;5055320;28;20416;-69
2023/05/08 08:40:09;;;;;;;4.78;3.60;;;23.70;39.30;;;;;;5054608;28;20021;-69
2023/05/08 08:42:34;;;;;;;3.75;3.35;;;23.20;39.30;;;;;;5054893;28;20025;-69
2023/05/08 08:45:00;;;;;;;4.18;3.72;;;22.90;40.20;;;;;;5054990;28;20061;-68
2023/05/08 08:47:40;;;;;;;4.70;3.47;;;22.70;40.20;;;;;;5055087;28;20033;-69
2023/05/08 08:50:08;;;;;;;5.72;3.72;;;22.30;40.80;;;;;;5054475;28;20040;-68
2023/05/08 08:52:46;;;;;;;5.85;3.95;;;21.60;43.10;;;;;;5053808;28;20021;-69
2023/05/08 08:55:17;;;;;;;5.03;3.80;;;21.70;43.70;;;;;;5054228;28;20021;-69
2023/05/08 08:57:56;;;;;;;3.90;3.47;;;21.50;42.40;;;;;;5053349;28;20162;-68
2023/05/08 09:00:24;;;;;;;4.55;3.97;;;21.00;43.70;;;;;;5054390;28;20107;-70
2023/05/08 09:02:50;;;;;;;5.82;3.70;;;20.70;44.20;;;;;;5054604;28;20036;-70
2023/05/08 09:05:17;;;;;;;5.55;3.70;;;20.60;44.40;;;;;;5053875;28;20595;-70
2023/05/08 09:07:43;;;;;;;4.55;3.75;;;20.70;45.10;;;;;;5053147;28;20037;-69
2023/05/08 09:10:14;;;;;;;7.40;3.90;;;20.80;45.20;;;;;;5054188;28;20025;-68
2023/05/08 09:12:40;;;;;;;6.65;3.90;;;20.20;44.80;;;;;;5054727;28;20036;-69
2023/05/08 09:15:06;;;;;;;5.10;3.85;;;19.90;45.90;;;;;;5054121;28;20025;-70
2023/05/08 09:17:31;;;;;;;8.77;4.03;;;19.70;46.50;;;;;;5053198;28;20120;-69
2023/05/08 09:19:58;;;;;;;4.32;3.92;;;19.60;47.10;;;;;;5054540;28;20037;-69
2023/05/08 09:22:25;;;;;;;5.43;4.18;;;19.20;46.50;;;;;;5053890;28;20025;-69
2023/05/08 09:24:58;;;;;;;5.00;3.97;;;18.70;48.80;;;;;;5053163;28;20063;-68
2023/05/08 09:27:26;;;;;;;5.90;4.28;;;18.70;49.60;;;;;;5053890;28;20040;-68
2023/05/08 09:30:02;;;;;;;4.57;3.42;;;18.70;48.90;;;;;;5054216;28;20037;-69
2023/05/08 09:32:29;;;;;;;8.05;3.83;;;18.60;49.50;;;;;;5053720;28;20025;-69
2023/05/08 09:34:55;;;;;;;5.35;3.30;;;18.50;49.80;;;;;;5054240;28;20024;-68
2023/05/08 09:37:21;;;;;;;5.85;3.15;;;18.50;50.90;;;;;;5053657;28;20029;-69
2023/05/08 09:39:47;;;;;;;4.68;3.72;;;18.50;50.30;;;;;;5053721;28;20029;-68
2023/05/08 09:42:13;;;;;;;4.32;3.83;;;18.50;50.70;;;;;;5053225;28;20032;-70
2023/05/08 09:44:49;;;;;;;5.20;3.55;;;18.30;50.30;;;;;;5053741;28;20060;-69
2023/05/08 09:47:23;;;;;;;5.78;3.80;;;18.40;51.00;;;;;;5053450;28;20120;-70
2023/05/08 09:50:08;;;;;;;4.20;3.60;;;18.40;51.90;;;;;;5054006;28;20029;-69
2023/05/08 09:52:36;;;;;;;6.10;3.85;;;18.40;51.30;;;;;;5053929;28;20082;-69
2023/05/08 09:55:09;;;;;;;4.80;3.33;;;18.20;51.90;;;;;;5052321;28;20523;-69
2023/05/08 09:57:38;;;;;;;5.00;3.72;;;18.20;51.90;;;;;;5052208;28;20031;-68
2023/05/08 10:00:07;;;;;;;4.07;3.55;;;18.20;52.40;;;;;;5053766;28;20108;-69
2023/05/08 10:02:33;;;;;;;4.60;4.20;;;18.10;51.80;;;;;;5053497;28;20029;-68
2023/05/08 10:04:59;;;;;;;4.45;3.55;;;18.00;52.00;;;;;;5053203;28;20033;-69
2023/05/08 10:07:30;;;;;;;3.95;3.55;;;18.20;52.20;;;;;;5052717;28;20040;-69
2023/05/08 10:10:04;;;;;;;6.90;4.30;;;18.20;52.50;;;;;;5053189;28;20064;-69
2023/05/08 10:12:31;;;;;;;7.65;3.63;;;18.10;52.20;;;;;;5052952;28;20075;-68
2023/05/08 10:14:57;;;;;;;4.50;3.88;;;18.00;52.30;;;;;;5053190;28;20033;-69
2023/05/08 10:17:48;;;;;;;4.47;3.85;;;18.10;52.80;;;;;;5052137;28;20056;-69
2023/05/08 10:20:15;;;;;;;6.38;4.20;;;18.10;54.90;;;;;;5052555;28;20033;-68
2023/05/08 10:22:43;;;;;;;4.97;4.18;;;18.20;52.20;;;;;;5053047;28;20037;-68
2023/05/08 10:25:19;;;;;;;5.10;3.70;;;18.10;52.90;;;;;;5053016;28;20033;-70
2023/05/08 10:28:22;;;;;;;5.93;3.70;;;18.20;53.00;;;;;;5052589;28;20541;-68
2023/05/08 10:30:48;;;;;;;5.43;3.78;;;18.40;53.20;;;;;;5052990;28;20025;-69
2023/05/08 10:33:18;;;;;;;4.05;3.25;;;18.40;52.60;;;;;;5052418;28;20037;-69
2023/05/08 10:35:44;;;;;;;7.60;3.70;;;18.10;53.20;;;;;;5052463;28;20436;-69
2023/05/08 10:38:10;;;;;;;4.05;3.63;;;18.10;53.30;;;;;;5052425;28;20143;-71
2023/05/08 10:40:37;;;;;;;5.15;3.90;;;17.80;53.30;;;;;;5052807;28;20093;-68
2023/05/08 10:43:05;;;;;;;8.07;3.60;;;17.80;53.50;;;;;;5052768;28;20029;-68
2023/05/08 10:45:32;;;;;;;7.05;3.72;;;17.60;53.80;;;;;;5052078;28;20087;-69
2023/05/08 10:48:46;;;;;;;5.35;3.42;;;17.90;55.90;;;;;;5052705;28;20071;-68
2023/05/08 10:51:20;;;;;;;5.57;3.65;;;18.00;54.30;;;;;;5043192;28;20033;-70
2023/05/08 10:53:54;;;;;;;4.18;3.78;;;18.20;54.70;;;;;;5052417;28;20025;-69
2023/05/08 10:56:26;;;;;;;5.40;3.40;;;18.30;53.70;;;;;;5052220;28;20017;-69
2023/05/08 10:58:56;;;;;;;4.75;3.88;;;18.40;54.40;;;;;;5052668;28;20031;-69
2023/05/08 11:01:23;;;;;;;4.87;3.17;;;18.50;53.20;;;;;;5050795;28;20035;-68
2023/05/08 11:03:51;;;;;;;10.20;4.18;;;18.40;53.70;;;;;;5052508;28;20025;-69
2023/05/08 11:06:38;;;;;;;4.70;3.65;;;18.30;55.40;;;;;;5052188;28;20033;-69
2023/05/08 11:09:04;;;;;;;4.13;3.72;;;18.20;54.60;;;;;;5052530;28;20025;-68
2023/05/08 11:11:35;;;;;;;3.90;3.45;;;18.00;53.30;;;;;;5051721;28;20540;-69
2023/05/08 11:14:06;;;;;;;5.45;4.03;;;17.90;54.00;;;;;;5052447;28;20063;-69
2023/05/08 11:16:53;;;;;;;7.22;4.45;;;17.90;54.50;;;;;;5057326;28;20029;-68
2023/05/08 11:19:21;;;;;;;5.70;3.90;;;18.00;54.50;;;;;;5058622;28;20056;-70
2023/05/08 11:22:11;;;;;;;5.15;4.07;;;17.80;55.80;;;;;;5057683;28;20036;-69
2023/05/08 11:24:38;;;;;;;5.63;3.40;;;17.60;54.80;;;;;;5058539;28;20111;-69
2023/05/08 11:27:04;;;;;;;4.22;3.50;;;17.70;56.40;;;;;;5058716;28;20281;-69
2023/05/08 11:29:30;;;;;;;5.32;3.45;;;17.60;55.60;;;;;;5057171;28;20469;-68
2023/05/08 11:31:56;;;;;;;4.00;3.58;;;17.70;56.70;;;;;;5058869;28;20029;-68
2023/05/08 11:34:43;;;;;;;4.25;3.80;;;17.80;55.70;;;;;;5058783;28;20470;-69
2023/05/08 11:37:10;;;;;;;4.75;3.85;;;17.80;56.90;;;;;;5058702;28;20422;-68
2023/05/08 11:39:36;;;;;;;5.05;3.70;;;17.80;54.10;;;;;;5058428;28;20104;-70
2023/05/08 11:42:23;;;;;;;9.35;3.20;;;17.70;54.60;;;;;;5058493;28;20033;-68
2023/05/08 11:45:18;;;;;;;6.22;3.60;;;17.80;54.80;;;;;;5058046;28;20064;-69
2023/05/08 11:47:44;;;;;;;6.32;3.55;;;17.80;54.90;;;;;;5053587;28;20047;-70
2023/05/08 11:50:12;;;;;;;4.80;3.70;;;17.90;55.50;;;;;;5057162;28;20040;-69
2023/05/08 11:52:40;;;;;;;4.10;3.70;;;18.00;55.80;;;;;;5058065;28;20033;-69
2023/05/08 11:55:11;;;;;;;5.28;3.30;;;18.20;57.00;;;;;;5058508;28;20025;-69
2023/05/08 11:57:37;;;;;;;;;;;18.30;56.90;;;;;;5059075;28;20182;-69
2023/05/08 12:00:05;;;;;;;4.60;3.67;;;18.30;55.80;;;;;;5058814;28;20304;-69
2023/05/08 12:02:41;;;;;;;5.88;3.40;;;18.10;54.90;;;;;;5058237;28;20029;-69
2023/05/08 12:05:08;;;;;;;4.97;3.72;;;18.10;55.40;;;;;;5058731;28;20029;-68
2023/05/08 12:07:43;;;;;;;5.15;4.00;;;18.00;57.10;;;;;;5058198;28;20033;-69
2023/05/08 12:10:09;;;;;;;3.88;3.47;;;18.00;55.30;;;;;;5058363;28;20094;-70
2023/05/08 12:12:39;;;;;;;5.38;3.40;;;18.00;56.60;;;;;;5057002;28;20025;-69
2023/05/08 12:15:12;;;;;;;6.38;4.20;;;18.00;55.40;;;;;;5058440;28;20477;-69
2023/05/08 12:17:38;;;;;;;6.45;3.53;;;17.90;55.50;;;;;;5057595;28;20564;-69
2023/05/08 12:20:15;;;;;;;4.35;3.75;;;17.90;55.80;;;;;;5058557;28;20112;-69
2023/05/08 12:22:42;;;;;;;6.93;3.60;;;17.80;56.20;;;;;;5056519;28;20021;-69
2023/05/08 12:25:10;;;;;;;4.57;3.45;;;17.80;56.90;;;;;;5058528;28;20029;-69
2023/05/08 12:27:36;;;;;;;3.67;3.25;;;17.80;57.10;;;;;;5055925;28;20033;-69
2023/05/08 12:30:07;;;;;;;3.70;3.30;;;17.80;56.90;;;;;;5055374;28;20033;-69
2023/05/08 12:32:35;;;;;;;5.13;2.92;;;17.80;56.60;;;;;;5054519;28;20474;-69
2023/05/08 12:35:01;;;;;;;3.50;3.17;;;17.90;56.90;;;;;;5055249;28;20037;-68
2023/05/08 12:37:27;;;;;;;6.10;3.53;;;18.00;56.30;;;;;;5054771;28;20048;-69
2023/05/08 12:39:53;;;;;;;3.28;2.67;;;18.00;56.90;;;;;;5054545;28;20021;-69
2023/05/08 12:42:20;;;;;;;5.30;3.75;;;18.10;57.10;;;;;;5054606;28;20094;-73
2023/05/08 12:44:54;;;;;;;4.70;3.47;;;18.10;56.50;;;;;;5054746;28;20051;-69
2023/05/08 12:47:20;;;;;;;4.70;3.58;;;18.10;55.70;;;;;;5054206;28;20366;-70
2023/05/08 12:49:48;;;;;;;3.92;3.50;;;17.90;54.80;;;;;;5055093;28;20025;-69
2023/05/08 12:52:14;;;;;;;3.70;3.20;;;18.00;57.60;;;;;;5054835;28;20032;-69
2023/05/08 12:54:48;;;;;;;4.50;3.45;;;17.90;57.50;;;;;;5054439;28;20154;-69
2023/05/08 12:57:16;;;;;;;4.32;2.72;;;17.90;56.10;;;;;;5054558;28;20055;-69
2023/05/08 12:59:43;;;;;;;6.35;2.60;;;17.90;55.60;;;;;;5054192;28;20021;-70